Aviation Digital Data Service (ADDS)

Output produced by METARs form (1053 UTC 17 June 2019)
found at http://www.aviationweather.gov/metar/data/
 
METAR text: ETNN 171020Z 11004KT 9999 FEW045 BKN280 23/11 Q1020 BLU+BLU+
Conditions at: ETNN (NOERVENICH (GAF), DE) observed 1020 UTC 17 June 2019
Temperature: 23.0°C (73°F)
Dewpoint: 11.0°C (52°F) [RH = 47%]
Pressure (altimeter): 30.12 inches Hg (1020.0 mb)
Winds: from the ESE (110 degrees) at 5 MPH (4 knots; 2.1 m/s)
Visibility: 6 or more miles (10+ km)
Ceiling: 28000 feet AGL
Clouds: few clouds at 4500 feet AGL
broken clouds at 28000 feet AGL
Weather: no significant weather observed at this time

METAR text: ETNN 170920Z 09006KT 9999 FEW035 BKN280 22/11 Q1020 BLU+BLU+
Conditions at: ETNN (NOERVENICH (GAF), DE) observed 0920 UTC 17 June 2019
Temperature: 22.0°C (72°F)
Dewpoint: 11.0°C (52°F) [RH = 50%]
Pressure (altimeter): 30.12 inches Hg (1020.0 mb)
Winds: from the E (90 degrees) at 7 MPH (6 knots; 3.1 m/s)
Visibility: 6 or more miles (10+ km)
Ceiling: 28000 feet AGL
Clouds: few clouds at 3500 feet AGL
broken clouds at 28000 feet AGL
Weather: no significant weather observed at this time

METAR text: ETNN 170820Z 11005KT 9999 FEW030 SCT280 21/13 Q1021 BLU+BLU+
Conditions at: ETNN (NOERVENICH (GAF), DE) observed 0820 UTC 17 June 2019
Temperature: 21.0°C (70°F)
Dewpoint: 13.0°C (55°F) [RH = 60%]
Pressure (altimeter): 30.15 inches Hg (1021.0 mb)
Winds: from the ESE (110 degrees) at 6 MPH (5 knots; 2.6 m/s)
Visibility: 6 or more miles (10+ km)
Ceiling: at least 12,000 feet AGL
Clouds: few clouds at 3000 feet AGL
scattered clouds at 28000 feet AGL
Weather: no significant weather observed at this time

METAR text: ETNN 170720Z 12004KT 9999 SCT300 19/12 Q1021 BLU+BLU+
Conditions at: ETNN (NOERVENICH (GAF), DE) observed 0720 UTC 17 June 2019
Temperature: 19.0°C (66°F)
Dewpoint: 12.0°C (54°F) [RH = 64%]
Pressure (altimeter): 30.15 inches Hg (1021.0 mb)
Winds: from the ESE (120 degrees) at 5 MPH (4 knots; 2.1 m/s)
Visibility: 6 or more miles (10+ km)
Ceiling: at least 12,000 feet AGL
Clouds: scattered clouds at 30000 feet AGL
Weather: no significant weather observed at this time

METAR text: ETNN 170620Z VRB02KT 9999 FEW300 17/12 Q1021 BLU+BLU+
Conditions at: ETNN (NOERVENICH (GAF), DE) observed 0620 UTC 17 June 2019
Temperature: 17.0°C (63°F)
Dewpoint: 12.0°C (54°F) [RH = 72%]
Pressure (altimeter): 30.15 inches Hg (1021.0 mb)
Winds: variable direction winds at 2 MPH (2 knots; 1.0 m/s)
Visibility: 6 or more miles (10+ km)
Ceiling: at least 12,000 feet AGL
Clouds: few clouds at 30000 feet AGL
Weather: no significant weather observed at this time

METAR text: ETNN 170520Z VRB02KT 9999 FEW300 15/11 Q1021 BLU+
Conditions at: ETNN (NOERVENICH (GAF), DE) observed 0520 UTC 17 June 2019
Temperature: 15.0°C (59°F)
Dewpoint: 11.0°C (52°F) [RH = 77%]
Pressure (altimeter): 30.15 inches Hg (1021.0 mb)
Winds: variable direction winds at 2 MPH (2 knots; 1.0 m/s)
Visibility: 6 or more miles (10+ km)
Ceiling: at least 12,000 feet AGL
Clouds: few clouds at 30000 feet AGL
Weather: no significant weather observed at this time

METAR text: ETNN 170420Z VRB02KT 9999 FEW300 13/11 Q1021 BLU+
Conditions at: ETNN (NOERVENICH (GAF), DE) observed 0420 UTC 17 June 2019
Temperature: 13.0°C (55°F)
Dewpoint: 11.0°C (52°F) [RH = 88%]
Pressure (altimeter): 30.15 inches Hg (1021.0 mb)
Winds: variable direction winds at 2 MPH (2 knots; 1.0 m/s)
Visibility: 6 or more miles (10+ km)
Ceiling: at least 12,000 feet AGL
Clouds: few clouds at 30000 feet AGL
Weather: no significant weather observed at this time

METAR text: ETNN 170320Z VRB02KT 9999 FEW300 11/10 Q1021 BLU+
Conditions at: ETNN (NOERVENICH (GAF), DE) observed 0320 UTC 17 June 2019
Temperature: 11.0°C (52°F)
Dewpoint: 10.0°C (50°F) [RH = 94%]
Pressure (altimeter): 30.15 inches Hg (1021.0 mb)
Winds: variable direction winds at 2 MPH (2 knots; 1.0 m/s)
Visibility: 6 or more miles (10+ km)
Ceiling: at least 12,000 feet AGL
Clouds: few clouds at 30000 feet AGL
Weather: no significant weather observed at this time

METAR text: ETNN 170220Z VRB01KT 9999 FEW050 11/10 Q1022 BLU+
Conditions at: ETNN (NOERVENICH (GAF), DE) observed 0220 UTC 17 June 2019
Temperature: 11.0°C (52°F)
Dewpoint: 10.0°C (50°F) [RH = 94%]
Pressure (altimeter): 30.18 inches Hg (1022.0 mb)
Winds: variable direction winds at 1 MPH (1 knots; 0.5 m/s)
Visibility: 6 or more miles (10+ km)
Ceiling: at least 12,000 feet AGL
Clouds: few clouds at 5000 feet AGL
Weather: no significant weather observed at this time

METAR text: ETNN 170120Z 05001KT 9999 FEW050 12/10 Q1022 BLU+
Conditions at: ETNN (NOERVENICH (GAF), DE) observed 0120 UTC 17 June 2019
Temperature: 12.0°C (54°F)
Dewpoint: 10.0°C (50°F) [RH = 88%]
Pressure (altimeter): 30.18 inches Hg (1022.0 mb)
Winds: from the NE (50 degrees) at 1 MPH (1 knots; 0.5 m/s)
Visibility: 6 or more miles (10+ km)
Ceiling: at least 12,000 feet AGL
Clouds: few clouds at 5000 feet AGL
Weather: no significant weather observed at this time

METAR text: ETNN 170020Z 00000KT 9999 FEW050 13/11 Q1022 BLU+
Conditions at: ETNN (NOERVENICH (GAF), DE) observed 0020 UTC 17 June 2019
Temperature: 13.0°C (55°F)
Dewpoint: 11.0°C (52°F) [RH = 88%]
Pressure (altimeter): 30.18 inches Hg (1022.0 mb)
Winds: calm
Visibility: 6 or more miles (10+ km)
Ceiling: at least 12,000 feet AGL
Clouds: few clouds at 5000 feet AGL
Weather: no significant weather observed at this time

METAR text: ETNN 162320Z 25002KT 9999 FEW050 13/11 Q1022 BLU+
Conditions at: ETNN (NOERVENICH (GAF), DE) observed 2320 UTC 16 June 2019
Temperature: 13.0°C (55°F)
Dewpoint: 11.0°C (52°F) [RH = 88%]
Pressure (altimeter): 30.18 inches Hg (1022.0 mb)
Winds: from the WSW (250 degrees) at 2 MPH (2 knots; 1.0 m/s)
Visibility: 6 or more miles (10+ km)
Ceiling: at least 12,000 feet AGL
Clouds: few clouds at 5000 feet AGL
Weather: no significant weather observed at this time

METAR text: ETNN 162220Z 00000KT 9999 FEW050 15/11 Q1022 BLU+
Conditions at: ETNN (NOERVENICH (GAF), DE) observed 2220 UTC 16 June 2019
Temperature: 15.0°C (59°F)
Dewpoint: 11.0°C (52°F) [RH = 77%]
Pressure (altimeter): 30.18 inches Hg (1022.0 mb)
Winds: calm
Visibility: 6 or more miles (10+ km)
Ceiling: at least 12,000 feet AGL
Clouds: few clouds at 5000 feet AGL
Weather: no significant weather observed at this time

METAR text: ETNN 162120Z 25001KT 9999 FEW050 15/11 Q1021 BLU+
Conditions at: ETNN (NOERVENICH (GAF), DE) observed 2120 UTC 16 June 2019
Temperature: 15.0°C (59°F)
Dewpoint: 11.0°C (52°F) [RH = 77%]
Pressure (altimeter): 30.15 inches Hg (1021.0 mb)
Winds: from the WSW (250 degrees) at 1 MPH (1 knots; 0.5 m/s)
Visibility: 6 or more miles (10+ km)
Ceiling: at least 12,000 feet AGL
Clouds: few clouds at 5000 feet AGL
Weather: no significant weather observed at this time

METAR text: ETNN 162020Z 29001KT 9999 FEW050 SCT300 17/11 Q1021 BLU+
Conditions at: ETNN (NOERVENICH (GAF), DE) observed 2020 UTC 16 June 2019
Temperature: 17.0°C (63°F)
Dewpoint: 11.0°C (52°F) [RH = 68%]
Pressure (altimeter): 30.15 inches Hg (1021.0 mb)
Winds: from the WNW (290 degrees) at 1 MPH (1 knots; 0.5 m/s)
Visibility: 6 or more miles (10+ km)
Ceiling: at least 12,000 feet AGL
Clouds: few clouds at 5000 feet AGL
scattered clouds at 30000 feet AGL
Weather: no significant weather observed at this time

METAR text: ETNN 161920Z 30002KT 9999 FEW050 SCT300 20/11 Q1021 BLU+
Conditions at: ETNN (NOERVENICH (GAF), DE) observed 1920 UTC 16 June 2019
Temperature: 20.0°C (68°F)
Dewpoint: 11.0°C (52°F) [RH = 56%]
Pressure (altimeter): 30.15 inches Hg (1021.0 mb)
Winds: from the WNW (300 degrees) at 2 MPH (2 knots; 1.0 m/s)
Visibility: 6 or more miles (10+ km)
Ceiling: at least 12,000 feet AGL
Clouds: few clouds at 5000 feet AGL
scattered clouds at 30000 feet AGL
Weather: no significant weather observed at this time

METAR text: ETNN 161820Z 31003KT 9999 FEW050 SCT090 22/11 Q1021 BLU+
Conditions at: ETNN (NOERVENICH (GAF), DE) observed 1820 UTC 16 June 2019
Temperature: 22.0°C (72°F)
Dewpoint: 11.0°C (52°F) [RH = 50%]
Pressure (altimeter): 30.15 inches Hg (1021.0 mb)
Winds: from the NW (310 degrees) at 3 MPH (3 knots; 1.5 m/s)
Visibility: 6 or more miles (10+ km)
Ceiling: at least 12,000 feet AGL
Clouds: few clouds at 5000 feet AGL
scattered clouds at 9000 feet AGL
Weather: no significant weather observed at this time

METAR text: ETNN 161720Z VRB02KT 9999 FEW050 SCT090 22/10 Q1021 BLU+
Conditions at: ETNN (NOERVENICH (GAF), DE) observed 1720 UTC 16 June 2019
Temperature: 22.0°C (72°F)
Dewpoint: 10.0°C (50°F) [RH = 46%]
Pressure (altimeter): 30.15 inches Hg (1021.0 mb)
Winds: variable direction winds at 2 MPH (2 knots; 1.0 m/s)
Visibility: 6 or more miles (10+ km)
Ceiling: at least 12,000 feet AGL
Clouds: few clouds at 5000 feet AGL
scattered clouds at 9000 feet AGL
Weather: no significant weather observed at this time

METAR text: ETNN 161620Z 29009KT 9999 FEW050 SCT090 22/10 Q1021 BLU+
Conditions at: ETNN (NOERVENICH (GAF), DE) observed 1620 UTC 16 June 2019
Temperature: 22.0°C (72°F)
Dewpoint: 10.0°C (50°F) [RH = 46%]
Pressure (altimeter): 30.15 inches Hg (1021.0 mb)
Winds: from the WNW (290 degrees) at 10 MPH (9 knots; 4.6 m/s)
Visibility: 6 or more miles (10+ km)
Ceiling: at least 12,000 feet AGL
Clouds: few clouds at 5000 feet AGL
scattered clouds at 9000 feet AGL
Weather: no significant weather observed at this time

METAR text: ETNN 161520Z 30010KT 9999 FEW050 SCT090 22/10 Q1021 BLU+
Conditions at: ETNN (NOERVENICH (GAF), DE) observed 1520 UTC 16 June 2019
Temperature: 22.0°C (72°F)
Dewpoint: 10.0°C (50°F) [RH = 46%]
Pressure (altimeter): 30.15 inches Hg (1021.0 mb)
Winds: from the WNW (300 degrees) at 12 MPH (10 knots; 5.1 m/s)
Visibility: 6 or more miles (10+ km)
Ceiling: at least 12,000 feet AGL
Clouds: few clouds at 5000 feet AGL
scattered clouds at 9000 feet AGL
Weather: no significant weather observed at this time

METAR text: ETNN 161420Z 30006KT 9999 FEW040 SCT070 22/11 Q1021 BLU+
Conditions at: ETNN (NOERVENICH (GAF), DE) observed 1420 UTC 16 June 2019
Temperature: 22.0°C (72°F)
Dewpoint: 11.0°C (52°F) [RH = 50%]
Pressure (altimeter): 30.15 inches Hg (1021.0 mb)
Winds: from the WNW (300 degrees) at 7 MPH (6 knots; 3.1 m/s)
Visibility: 6 or more miles (10+ km)
Ceiling: at least 12,000 feet AGL
Clouds: few clouds at 4000 feet AGL
scattered clouds at 7000 feet AGL
Weather: no significant weather observed at this time

METAR text: ETNN 161320Z 27008KT 9999 SCT060 21/11 Q1021 BLU+
Conditions at: ETNN (NOERVENICH (GAF), DE) observed 1320 UTC 16 June 2019
Temperature: 21.0°C (70°F)
Dewpoint: 11.0°C (52°F) [RH = 53%]
Pressure (altimeter): 30.15 inches Hg (1021.0 mb)
Winds: from the W (270 degrees) at 9 MPH (8 knots; 4.1 m/s)
Visibility: 6 or more miles (10+ km)
Ceiling: at least 12,000 feet AGL
Clouds: scattered clouds at 6000 feet AGL
Weather: no significant weather observed at this time

METAR text: ETNN 161220Z 28011KT 9999 SCT040 21/10 Q1021 BLU+
Conditions at: ETNN (NOERVENICH (GAF), DE) observed 1220 UTC 16 June 2019
Temperature: 21.0°C (70°F)
Dewpoint: 10.0°C (50°F) [RH = 49%]
Pressure (altimeter): 30.15 inches Hg (1021.0 mb)
Winds: from the W (280 degrees) at 13 MPH (11 knots; 5.7 m/s)
Visibility: 6 or more miles (10+ km)
Ceiling: at least 12,000 feet AGL
Clouds: scattered clouds at 4000 feet AGL
Weather: no significant weather observed at this time

METAR text: ETNN 161120Z 27009KT 9999 SCT040 21/10 Q1021 BLU+
Conditions at: ETNN (NOERVENICH (GAF), DE) observed 1120 UTC 16 June 2019
Temperature: 21.0°C (70°F)
Dewpoint: 10.0°C (50°F) [RH = 49%]
Pressure (altimeter): 30.15 inches Hg (1021.0 mb)
Winds: from the W (270 degrees) at 10 MPH (9 knots; 4.6 m/s)
Visibility: 6 or more miles (10+ km)
Ceiling: at least 12,000 feet AGL
Clouds: scattered clouds at 4000 feet AGL
Weather: no significant weather observed at this time

METAR text: ETNN 161020Z AUTO 29010KT 8000 // ////// 21/11 Q1021 ///
Conditions at: ETNN (NOERVENICH (GAF), DE) observed 1020 UTC 16 June 2019
Temperature: 21.0°C (70°F)
Dewpoint: 11.0°C (52°F) [RH = 53%]
Pressure (altimeter): 30.15 inches Hg (1021.0 mb)
Winds: from the WNW (290 degrees) at 12 MPH (10 knots; 5.1 m/s)
Visibility: 5 miles ( 8 km)
Ceiling: unknown
Clouds: missing
Weather: no significant weather observed at this time

METAR text: ETNN 160920Z AUTO 30008KT 9000 // ////// 20/11 Q1020 ///
Conditions at: ETNN (NOERVENICH (GAF), DE) observed 0920 UTC 16 June 2019
Temperature: 20.0°C (68°F)
Dewpoint: 11.0°C (52°F) [RH = 56%]
Pressure (altimeter): 30.12 inches Hg (1020.0 mb)
Winds: from the WNW (300 degrees) at 9 MPH (8 knots; 4.1 m/s)
Visibility: 6 miles ( 9 km)
Ceiling: unknown
Clouds: missing
Weather: no significant weather observed at this time

METAR text: ETNN 160820Z AUTO 30005KT 9999 // ////// 20/11 Q1020 ///
Conditions at: ETNN (NOERVENICH (GAF), DE) observed 0820 UTC 16 June 2019
Temperature: 20.0°C (68°F)
Dewpoint: 11.0°C (52°F) [RH = 56%]
Pressure (altimeter): 30.12 inches Hg (1020.0 mb)
Winds: from the WNW (300 degrees) at 6 MPH (5 knots; 2.6 m/s)
Visibility: 6 or more miles (10+ km)
Ceiling: unknown
Clouds: missing
Weather: no significant weather observed at this time

METAR text: ETNN 160720Z AUTO 28005KT 9999 // ////// 19/10 Q1020 ///
Conditions at: ETNN (NOERVENICH (GAF), DE) observed 0720 UTC 16 June 2019
Temperature: 19.0°C (66°F)
Dewpoint: 10.0°C (50°F) [RH = 56%]
Pressure (altimeter): 30.12 inches Hg (1020.0 mb)
Winds: from the W (280 degrees) at 6 MPH (5 knots; 2.6 m/s)
Visibility: 6 or more miles (10+ km)
Ceiling: unknown
Clouds: missing
Weather: no significant weather observed at this time

METAR text: ETNN 160620Z AUTO 23005KT 9000 // ////// 17/10 Q1019 ///
Conditions at: ETNN (NOERVENICH (GAF), DE) observed 0620 UTC 16 June 2019
Temperature: 17.0°C (63°F)
Dewpoint: 10.0°C (50°F) [RH = 63%]
Pressure (altimeter): 30.09 inches Hg (1019.0 mb)
Winds: from the SW (230 degrees) at 6 MPH (5 knots; 2.6 m/s)
Visibility: 6 miles ( 9 km)
Ceiling: unknown
Clouds: missing
Weather: no significant weather observed at this time

METAR text: ETNN 160520Z AUTO 25005KT 9000 // ////// 16/10 Q1019 ///
Conditions at: ETNN (NOERVENICH (GAF), DE) observed 0520 UTC 16 June 2019
Temperature: 16.0°C (61°F)
Dewpoint: 10.0°C (50°F) [RH = 68%]
Pressure (altimeter): 30.09 inches Hg (1019.0 mb)
Winds: from the WSW (250 degrees) at 6 MPH (5 knots; 2.6 m/s)
Visibility: 6 miles ( 9 km)
Ceiling: unknown
Clouds: missing
Weather: no significant weather observed at this time

METAR text: ETNN 160420Z AUTO 24004KT 6000 // ////// 15/10 Q1019 ///
Conditions at: ETNN (NOERVENICH (GAF), DE) observed 0420 UTC 16 June 2019
Temperature: 15.0°C (59°F)
Dewpoint: 10.0°C (50°F) [RH = 72%]
Pressure (altimeter): 30.09 inches Hg (1019.0 mb)
Winds: from the WSW (240 degrees) at 5 MPH (4 knots; 2.1 m/s)
Visibility: 4 miles ( 6 km)
Ceiling: unknown
Clouds: missing
Weather: no significant weather observed at this time

METAR text: ETNN 160320Z AUTO 23005KT 6000 // ////// 15/10 Q1019 ///
Conditions at: ETNN (NOERVENICH (GAF), DE) observed 0320 UTC 16 June 2019
Temperature: 15.0°C (59°F)
Dewpoint: 10.0°C (50°F) [RH = 72%]
Pressure (altimeter): 30.09 inches Hg (1019.0 mb)
Winds: from the SW (230 degrees) at 6 MPH (5 knots; 2.6 m/s)
Visibility: 4 miles ( 6 km)
Ceiling: unknown
Clouds: missing
Weather: no significant weather observed at this time

METAR text: ETNN 160220Z AUTO 20003KT 6000 // ////// 15/11 Q1018 ///
Conditions at: ETNN (NOERVENICH (GAF), DE) observed 0220 UTC 16 June 2019
Temperature: 15.0°C (59°F)
Dewpoint: 11.0°C (52°F) [RH = 77%]
Pressure (altimeter): 30.06 inches Hg (1018.0 mb)
Winds: from the SSW (200 degrees) at 3 MPH (3 knots; 1.5 m/s)
Visibility: 4 miles ( 6 km)
Ceiling: unknown
Clouds: missing
Weather: no significant weather observed at this time

METAR text: ETNN 160120Z AUTO 26003KT 7000 // ////// 15/11 Q1018 ///
Conditions at: ETNN (NOERVENICH (GAF), DE) observed 0120 UTC 16 June 2019
Temperature: 15.0°C (59°F)
Dewpoint: 11.0°C (52°F) [RH = 77%]
Pressure (altimeter): 30.06 inches Hg (1018.0 mb)
Winds: from the W (260 degrees) at 3 MPH (3 knots; 1.5 m/s)
Visibility: 4 miles ( 7 km)
Ceiling: unknown
Clouds: missing
Weather: no significant weather observed at this time

METAR text: ETNN 160020Z AUTO 26003KT 7000 // ////// 16/12 Q1018 ///
Conditions at: ETNN (NOERVENICH (GAF), DE) observed 0020 UTC 16 June 2019
Temperature: 16.0°C (61°F)
Dewpoint: 12.0°C (54°F) [RH = 77%]
Pressure (altimeter): 30.06 inches Hg (1018.0 mb)
Winds: from the W (260 degrees) at 3 MPH (3 knots; 1.5 m/s)
Visibility: 4 miles ( 7 km)
Ceiling: unknown
Clouds: missing
Weather: no significant weather observed at this time

METAR text: ETNN 152320Z AUTO 28006KT 7000 // ////// 17/11 Q1018 ///
Conditions at: ETNN (NOERVENICH (GAF), DE) observed 2320 UTC 15 June 2019
Temperature: 17.0°C (63°F)
Dewpoint: 11.0°C (52°F) [RH = 68%]
Pressure (altimeter): 30.06 inches Hg (1018.0 mb)
Winds: from the W (280 degrees) at 7 MPH (6 knots; 3.1 m/s)
Visibility: 4 miles ( 7 km)
Ceiling: unknown
Clouds: missing
Weather: no significant weather observed at this time

Forecast for: ETNN (NOERVENICH (GAF), DE)
Text: TAF ETNN 171015Z 1711/1720 11005KT 9999 NSW FEW040 BKN280 BY ETGL
Forecast period: 1100 to 2000 UTC 17 June 2019
Forecast type: FROM: standard forecast or significant change
Winds: from the ESE (110 degrees) at 6 MPH (5 knots; 2.6 m/s)
Visibility: 6 or more miles 10+ km)
Ceiling: 28000 feet AGL
Clouds: few clouds at 4000 feet AGL
broken clouds at 28000 feet AGL
Weather: NSW  (no significant weather)